• Join FlightAware (Why Join?)
  • Login
  • US Flag 
01:04PM EST


 

Airport Tracker/Info


-or-


 

Live Flight TrackerFlight Track Log ✈ ASQ5432 ✈ 20-Aug-2013 ✈ KPHF - KATL

Flight Track Log - Related Links

Times and Time Zones

All times are in EDT time to prevent confusion due to time zone crossing. See the ASQ5432 flight status page for this flight to view local times or setup timezone preferences in your user account.

Time Position Orientation Groundspeed Altitude Reporting Facility
EDT Latitude Longitude Course Direction KTS MPH feet Rate Location/Type
07:50AM 37.1397 -76.4725 36° Northeast 156 180 700  Level Washington Center
07:51AM 37.1900 -76.4261 36° Northeast 222 255 2,900 1,620 Climbing Washington Center
07:52AM 37.1894 -76.4992 269° West 266 306 4,400 1,860 Climbing Washington Center
07:54AM 37.1158 -76.5789 221° Southwest 283 326 7,300 2,100 Climbing Washington Center
07:55AM 37.0569 -76.6408 220° Southwest 288 331 9,300 1,980 Climbing Washington Center
07:56AM 36.9936 -76.7075 220° Southwest 288 331 11,300 1,440 Climbing Washington Center
07:57AM 36.9325 -76.7767 222° Southwest 294 338 12,300 1,260 Climbing Washington Center
07:58AM 36.8650 -76.8511 221° Southwest 307 353 13,900 1,680 Climbing Washington Center
07:59AM 36.7975 -76.9225 220° Southwest 321 369 15,700 1,500 Climbing Washington Center
08:00AM 36.7300 -76.9967 221° Southwest 321 369 16,900 1,080 Climbing Washington Center
08:01AM 36.6767 -77.0914 235° Southwest 321 369 17,900 840 Climbing Washington Center
08:02AM 36.6294 -77.1914 240° Southwest 332 382 18,700 900 Climbing Washington Center
08:03AM 36.5842 -77.2914 241° Southwest 337 388 19,700 960 Climbing Washington Center
08:04AM 36.5347 -77.3964 240° Southwest 347 399 20,600 780 Climbing Washington Center
08:05AM 36.4850 -77.5036 240° Southwest 352 405 21,300 720 Climbing Washington Center
08:06AM 36.4353 -77.6083 239° Southwest 357 411 22,100 720 Climbing Washington Center
08:07AM 36.3919 -77.7025 240° Southwest 357 411 22,800 720 Climbing Washington Center
08:08AM 36.3442 -77.8072 240° Southwest 357 411 23,600 660 Climbing Washington Center
08:09AM 36.2922 -77.9114 238° Southwest 357 411 24,200 600 Climbing Washington Center
08:10AM 36.2094 -77.9836 215° Southwest 357 411 24,800 540 Climbing Washington Center
08:11AM 36.1222 -78.0581 215° Southwest 365 420 25,300 480 Climbing Washington Center
08:12AM 36.0394 -78.1325 216° Southwest 376 433 25,800 480 Climbing Washington Center
08:13AM 35.9522 -78.2067 215° Southwest 376 433 26,300 480 Climbing Washington Center
08:14AM 35.8672 -78.2808 215° Southwest 381 438 26,800 480 Climbing Washington Center
08:15AM 35.7819 -78.3547 215° Southwest 387 445 27,300 480 Climbing Washington Center
08:16AM 35.6947 -78.4308 215° Southwest 387 445 27,800 480 Climbing Washington Center
08:17AM 35.6136 -78.5022 216° Southwest 382 440 28,300 540 Climbing Washington Center
08:18AM 35.5117 -78.5825 213° Southwest 397 457 28,900 480 Climbing Washington Center
08:19AM 35.4369 -78.6486 216° Southwest 387 445 29,300 480 Climbing Washington Center
08:20AM 35.3450 -78.7267 215° Southwest 381 438 29,900 300 Climbing Washington Center
08:21AM 35.2575 -78.8019 215° Southwest 381 438 30,000  Climbing Washington Center
08:22AM 35.1700 -78.8772 215° Southwest 386 444 30,000  Level Washington Center
08:23AM 35.0825 -78.9500 214° Southwest 386 444 30,000  Level Washington Center
08:24AM 34.9947 -79.0247 215° Southwest 391 450 30,000  Level Washington Center
08:26AM 34.8306 -79.1597 214° Southwest 396 456 30,000  Level Jacksonville Center
08:27AM 34.7450 -79.2317 215° Southwest 390 449 30,000  Level Jacksonville Center
08:28AM 34.6553 -79.3061 214° Southwest 390 449 30,000  Level Jacksonville Center
08:29AM 34.5697 -79.3778 215° Southwest 390 449 30,000  Level Jacksonville Center
08:30AM 34.4842 -79.4517 215° Southwest 390 449 30,000  Level Jacksonville Center
08:31AM 34.3942 -79.5208 212° Southwest 390 449 30,000  Level Jacksonville Center
08:32AM 34.3086 -79.5944 215° Southwest 390 449 30,000  Level Jacksonville Center
08:33AM 34.2333 -79.6728 221° Southwest 385 443 30,000  Level Jacksonville Center
08:34AM 34.1989 -79.7944 251° West 372 428 30,000  Level Jacksonville Center
08:35AM 34.1664 -79.9161 252° West 377 434 30,000  Level Jacksonville Center
08:36AM 34.1339 -80.0375 252° West 383 441 30,000  Level Jacksonville Center
08:37AM 34.1011 -80.1592 252° West 383 441 30,000  Level Jacksonville Center
08:38AM 34.0681 -80.2828 252° West 388 447 30,000  Level Jacksonville Center
08:39AM 34.0350 -80.4042 252° West 388 447 30,000  Level Jacksonville Center
08:40AM 34.0019 -80.5278 252° West 388 447 30,000  Level Jacksonville Center
08:41AM 33.9667 -80.6514 251° West 388 447 30,000  Level Jacksonville Center
08:42AM 33.9333 -80.7750 252° West 388 447 30,000  Level Jacksonville Center
08:43AM 33.9019 -80.8983 253° West 388 447 30,000  Level Jacksonville Center
08:44AM 33.8664 -81.0217 251° West 388 447 30,000  Level Jacksonville Center
08:45AM 33.8325 -81.1425 251° West 388 447 30,000  Level Jacksonville Center
08:47AM 33.7494 -81.4106 250° West 390 449 30,000  Level Atlanta Center
08:48AM 33.7144 -81.5364 252° West 390 449 30,000  Level Atlanta Center
08:49AM 33.6772 -81.6600 250° West 395 455 30,000  Level Atlanta Center
08:50AM 33.6378 -81.7858 249° West 395 455 30,000  Level Atlanta Center
08:51AM 33.6006 -81.9114 250° West 395 455 30,000  Level Atlanta Center
08:52AM 33.5631 -82.0369 250° West 395 455 30,000  Level Atlanta Center
08:53AM 33.5253 -82.1625 250° West 395 455 30,000 -180 Level Atlanta Center
08:54AM 33.4836 -82.3028 250° West 408 470 29,700 -600 Descending Atlanta Center
08:55AM 33.4414 -82.4331 249° West 414 476 28,900 -840 Descending Atlanta Center
08:56AM 33.4033 -82.5633 251° West 421 484 28,100 -840 Descending Atlanta Center
08:57AM 33.3611 -82.7008 250° West 433 498 27,300 -840 Descending Atlanta Center
08:58AM 33.3228 -82.8331 251° West 433 498 26,500 -840 Descending Atlanta Center
08:59AM 33.2761 -82.9728 248° West 442 509 25,700 -900 Descending Atlanta Center
09:00AM 33.2458 -83.0975 254° West 447 514 24,800 -1,440 Descending Atlanta Center
09:01AM 33.2428 -83.2417 269° West 441 507 22,900 -2,220 Descending Atlanta Center
09:02AM 33.2331 -83.3881 266° West 443 510 20,400 -2,580 Descending Atlanta Center
09:03AM 33.2275 -83.5247 267° West 433 498 17,800 -2,400 Descending Atlanta Center
09:04AM 33.2217 -83.6564 267° West 411 473 15,600 -1,860 Descending Atlanta Center
09:05AM 33.2158 -83.7906 267° West 388 447 14,100 -840 Descending Atlanta Center
09:06AM 33.2681 -83.8922 302° West 349 402 14,000 -300 Descending Atlanta Center
09:07AM 33.3225 -83.9717 309° West 329 379 13,500 -900 Descending Atlanta Center
09:08AM 33.3767 -84.0536 308° West 315 362 12,300 -780 Descending Atlanta Center
09:09AM 33.4289 -84.1358 307° West 315 362 12,000 -180 Descending Atlanta Center
09:10AM 33.4667 -84.2000 305° West 302 348 12,000  Level Atlanta TRACON
09:11AM 33.5167 -84.2667 312° West 259 298 12,000 -360 Level Atlanta TRACON
09:12AM 33.5500 -84.3333 301° West 251 289 11,400 -1,320 Descending Atlanta TRACON
09:12AM 33.5500 -84.4000 270° West 267 307 9,700 -1,680 Descending Atlanta TRACON
09:13AM 33.5453 -84.4400 262° West 252 290 9,100 -1,440 Descending Atlanta Center
09:15AM 33.5500 -84.6333 272° West 223 257 5,400 -1,620 Descending Atlanta TRACON
09:16AM 33.5500 -84.7167 270° West 236 272 3,600 -1,200 Descending Atlanta TRACON
09:17AM 33.5500 -84.7833 270° West 218 251 3,000 -300 Descending Atlanta TRACON
09:18AM 33.6000 -84.8000 344° North 185 213 3,000  Level Atlanta TRACON
09:19AM 33.6167 -84.7667 59° Northeast 176 203 3,000  Level Atlanta TRACON
09:20AM 33.6167 -84.7167 90° East 166 191 3,000  Level Atlanta TRACON
09:21AM 33.6167 -84.6500 90° East 164 189 3,000  Level Atlanta TRACON
09:22AM 33.6167 -84.6000 90° East 165 190 3,000 -240 Level Atlanta TRACON
09:23AM 33.6167 -84.5500 90° East 166 191 2,600 -600 Descending Atlanta TRACON
09:24AM 33.6167 -84.5000 90° East 143 165 1,900 -780 Descending Atlanta TRACON
09:26AM 33.6367 -84.4279 64° Northeast  Level Estimated
09:33AM 33.6367 -84.4279 64° Northeast  Level Estimated
09:34AM 33.6367 -84.4279 64° Northeast  Level Estimated